createdAt,value
2022-09-20T00:03:39.303Z,101291.00
2022-09-20T00:08:39.685Z,101293.00
2022-09-20T00:13:39.219Z,101291.00
2022-09-20T00:18:39.161Z,101291.00
2022-09-20T00:23:39.174Z,101293.00
2022-09-20T00:28:39.266Z,101289.00
2022-09-20T00:33:57.388Z,101291.00
2022-09-20T00:38:57.191Z,101291.00
2022-09-20T00:43:57.216Z,101293.00
2022-09-20T00:48:57.168Z,101297.00
2022-09-20T00:53:57.213Z,101297.00
2022-09-20T00:58:58.879Z,101299.00
2022-09-20T01:03:59.220Z,101299.00
2022-09-20T01:09:01.101Z,101297.00
2022-09-20T01:14:01.296Z,101299.00
2022-09-20T01:19:01.242Z,101299.00
2022-09-20T01:24:01.239Z,101297.00
2022-09-20T01:29:01.328Z,101299.00
2022-09-20T01:34:01.558Z,101301.00
2022-09-20T01:39:01.279Z,101301.00
2022-09-20T01:44:01.226Z,101299.00
2022-09-20T01:49:01.227Z,101303.00
2022-09-20T01:54:01.239Z,101301.00
2022-09-20T01:59:22.807Z,101305.00
2022-09-20T02:04:03.257Z,101307.00
2022-09-20T02:09:03.248Z,101316.00
2022-09-20T02:14:03.348Z,101318.00
2022-09-20T02:19:03.275Z,101307.00
2022-09-20T02:24:03.255Z,101305.00
2022-09-20T02:29:03.343Z,101303.00
2022-09-20T02:34:03.293Z,101299.00
2022-09-20T02:39:03.292Z,101297.00
2022-09-20T02:44:03.281Z,101297.00
2022-09-20T02:49:03.290Z,101295.00
2022-09-20T02:54:03.272Z,101291.00
2022-09-20T02:59:03.398Z,101291.00
2022-09-20T03:04:03.344Z,101295.00
2022-09-20T03:09:03.300Z,101297.00
2022-09-20T03:14:03.345Z,101295.00
2022-09-20T03:19:03.301Z,101295.00
2022-09-20T03:24:03.290Z,101289.00
2022-09-20T03:29:03.661Z,101291.00
2022-09-20T03:34:03.360Z,101291.00
2022-09-20T03:39:03.328Z,101289.00
2022-09-20T03:44:03.413Z,101291.00
2022-09-20T03:49:03.552Z,101291.00
2022-09-20T03:54:03.308Z,101284.00
2022-09-20T03:59:03.329Z,101285.00
2022-09-20T04:04:03.365Z,101293.00
2022-09-20T04:09:03.363Z,101295.00
2022-09-20T04:14:05.916Z,101295.00
2022-09-20T04:19:06.958Z,101299.00
2022-09-20T04:24:07.338Z,101305.00
2022-09-20T04:29:09.298Z,101307.00
2022-09-20T04:34:09.332Z,101303.00
2022-09-20T04:39:09.473Z,101303.00
2022-09-20T04:44:09.393Z,101305.00
2022-09-20T04:49:10.056Z,101305.00
2022-09-20T04:54:10.660Z,101307.00
2022-09-20T04:59:10.389Z,101316.00
2022-09-20T05:04:10.442Z,101316.00
2022-09-20T05:09:10.786Z,101320.00
2022-09-20T05:14:13.274Z,101328.00
2022-09-20T05:19:13.400Z,101335.00
2022-09-20T05:24:13.702Z,101337.00
2022-09-20T05:29:14.079Z,101341.00
2022-09-20T05:34:14.856Z,101343.00
2022-09-20T05:39:14.369Z,101345.00
2022-09-20T05:44:14.373Z,101349.00
2022-09-20T05:49:14.475Z,101347.00
2022-09-20T05:54:14.459Z,101351.00
2022-09-20T05:59:14.655Z,101349.00
2022-09-20T06:04:14.664Z,101355.00
2022-09-20T06:09:14.402Z,101361.00
2022-09-20T06:14:14.727Z,101365.00
2022-09-20T06:19:16.347Z,101369.00
2022-09-20T06:24:17.258Z,101371.00
2022-09-20T06:29:17.423Z,101371.00
2022-09-20T06:34:17.455Z,101369.00
2022-09-20T06:39:35.966Z,101371.00
2022-09-20T06:44:35.755Z,101375.00
2022-09-20T06:49:36.031Z,101378.00
2022-09-20T06:54:37.434Z,101380.00
2022-09-20T06:59:37.927Z,101384.00
2022-09-20T07:04:37.503Z,101388.00
2022-09-20T07:09:38.031Z,101392.00
2022-09-20T07:14:38.464Z,101396.00
2022-09-20T07:19:38.431Z,101402.00
2022-09-20T07:24:40.177Z,101404.00
2022-09-20T07:29:40.893Z,101406.00
2022-09-20T07:34:40.919Z,101406.00
2022-09-20T07:39:41.346Z,101406.00
2022-09-20T07:44:43.458Z,101400.00
2022-09-20T07:49:43.463Z,101402.00
2022-09-20T07:54:45.568Z,101402.00
2022-09-20T07:59:45.517Z,101414.00
2022-09-20T08:04:45.671Z,101414.00
2022-09-20T08:09:45.494Z,101412.00
2022-09-20T08:14:45.529Z,101414.00
2022-09-20T08:19:45.494Z,101416.00
2022-09-20T08:24:46.619Z,101418.00
2022-09-20T08:29:46.510Z,101412.00
2022-09-20T08:34:49.262Z,101406.00
2022-09-20T08:39:57.931Z,101404.00
2022-09-20T08:44:59.629Z,101408.00
2022-09-20T08:49:58.288Z,101412.00
2022-09-20T08:54:59.364Z,101410.00
2022-09-20T09:00:01.849Z,101406.00
2022-09-20T09:05:03.150Z,101404.00
2022-09-20T09:10:03.693Z,101402.00
2022-09-20T09:15:04.118Z,101406.00
2022-09-20T09:20:03.848Z,101408.00
2022-09-20T09:25:04.765Z,101406.00
2022-09-20T09:30:05.934Z,101410.00
2022-09-20T09:35:06.325Z,101414.00
2022-09-20T09:40:07.464Z,101414.00
2022-09-20T09:45:07.824Z,101416.00
2022-09-20T09:50:09.966Z,101418.00
2022-09-20T09:55:10.134Z,101412.00
2022-09-20T10:00:17.865Z,101406.00
2022-09-20T10:05:18.010Z,101406.00
2022-09-20T10:10:17.581Z,101408.00
2022-09-20T10:15:17.676Z,101406.00
2022-09-20T10:20:17.635Z,101408.00
2022-09-20T10:25:17.606Z,101406.00
2022-09-20T10:30:17.616Z,101404.00
2022-09-20T10:35:17.689Z,101398.00
2022-09-20T10:40:17.701Z,101398.00
2022-09-20T10:45:36.302Z,101400.00
2022-09-20T10:50:19.825Z,101400.00
2022-09-20T10:55:20.216Z,101402.00
2022-09-20T11:00:20.756Z,101404.00
2022-09-20T11:05:20.689Z,101404.00
2022-09-20T11:10:21.522Z,101410.00
2022-09-20T11:15:21.712Z,101414.00
2022-09-20T11:20:21.645Z,101420.00
2022-09-20T11:25:24.988Z,101422.00
2022-09-20T11:30:23.650Z,101424.00
2022-09-20T11:35:24.716Z,101425.00
2022-09-20T11:40:24.809Z,101425.00
2022-09-20T11:45:28.325Z,101427.00
2022-09-20T11:50:28.600Z,101431.00
2022-09-20T11:55:28.700Z,101435.00
2022-09-20T12:00:29.615Z,101433.00
2022-09-20T12:05:29.740Z,101429.00
2022-09-20T12:10:30.201Z,101424.00
2022-09-20T12:15:30.520Z,101424.00
2022-09-20T12:20:30.692Z,101418.00
2022-09-20T12:25:30.810Z,101416.00
2022-09-20T12:30:32.600Z,101416.00
2022-09-20T12:35:34.440Z,101416.00
2022-09-20T12:40:34.791Z,101416.00
2022-09-20T12:45:34.753Z,101418.00
2022-09-20T12:50:52.885Z,101422.00
2022-09-20T12:55:54.621Z,101422.00
2022-09-20T13:00:55.354Z,101420.00
2022-09-20T13:05:56.240Z,101418.00
2022-09-20T13:10:56.989Z,101416.00
2022-09-20T13:15:56.682Z,101414.00
2022-09-20T13:20:56.755Z,101412.00
2022-09-20T13:25:58.165Z,101412.00
2022-09-20T13:30:57.841Z,101412.00
2022-09-20T13:35:58.329Z,101412.00
2022-09-20T13:41:00.223Z,101408.00
2022-09-20T13:45:59.907Z,101404.00
2022-09-20T13:50:59.827Z,101400.00
2022-09-20T13:55:59.813Z,101402.00
2022-09-20T14:00:59.885Z,101400.00
2022-09-20T14:05:59.847Z,101396.00
2022-09-20T14:10:59.800Z,101390.00
2022-09-20T14:15:59.796Z,101390.00
2022-09-20T14:20:59.814Z,101384.00
2022-09-20T14:26:00.022Z,101386.00
2022-09-20T14:30:59.791Z,101386.00
2022-09-20T14:36:00.573Z,101384.00
2022-09-20T14:41:00.808Z,101382.00
2022-09-20T14:46:01.284Z,101382.00
2022-09-20T14:51:01.096Z,101380.00
2022-09-20T14:56:00.938Z,101378.00
2022-09-20T15:01:02.257Z,101380.00
2022-09-20T15:06:01.961Z,101380.00
2022-09-20T15:11:01.827Z,101377.00
2022-09-20T15:16:01.944Z,101377.00
2022-09-20T15:21:01.824Z,101380.00
2022-09-20T15:26:02.049Z,101380.00
2022-09-20T15:31:01.947Z,101382.00
2022-09-20T15:36:02.005Z,101384.00
2022-09-20T15:41:03.102Z,101386.00
2022-09-20T15:46:03.388Z,101390.00
2022-09-20T15:51:03.839Z,101392.00
2022-09-20T15:56:03.863Z,101394.00
2022-09-20T16:01:04.855Z,101396.00
2022-09-20T16:06:05.032Z,101396.00
2022-09-20T16:11:04.854Z,101400.00
2022-09-20T16:16:04.972Z,101404.00
2022-09-20T16:21:05.011Z,101406.00
2022-09-20T16:26:04.902Z,101408.00
2022-09-20T16:31:07.960Z,101414.00
2022-09-20T16:36:08.008Z,101412.00
2022-09-20T16:41:07.888Z,101416.00
2022-09-20T16:46:09.038Z,101414.00
2022-09-20T16:51:08.886Z,101416.00
2022-09-20T16:56:08.994Z,101418.00
2022-09-20T17:01:09.119Z,101418.00
2022-09-20T17:06:09.063Z,101422.00
2022-09-20T17:11:09.821Z,101425.00
2022-09-20T17:16:09.983Z,101429.00
2022-09-20T17:21:10.186Z,101431.00
2022-09-20T17:26:11.202Z,101433.00
2022-09-20T17:31:11.098Z,101439.00
2022-09-20T17:36:11.156Z,101445.00
2022-09-20T17:41:10.958Z,101453.00
2022-09-20T17:46:10.942Z,101457.00
2022-09-20T17:51:12.699Z,101461.00
2022-09-20T17:56:12.978Z,101465.00
2022-09-20T18:01:13.782Z,101472.00
2022-09-20T18:06:14.297Z,101474.00
2022-09-20T18:11:14.020Z,101480.00
2022-09-20T18:16:14.030Z,101490.00
2022-09-20T18:21:14.001Z,101496.00
2022-09-20T18:26:23.192Z,101498.00
2022-09-20T18:31:23.036Z,101506.00
2022-09-20T18:36:25.166Z,101512.00
2022-09-20T18:41:25.578Z,101518.00
2022-09-20T18:46:26.573Z,101519.00
2022-09-20T18:51:28.659Z,101519.00
2022-09-20T18:56:29.071Z,101523.00
2022-09-20T19:01:29.105Z,101525.00
2022-09-20T19:06:29.013Z,101525.00
2022-09-20T19:11:29.006Z,101529.00
2022-09-20T19:16:30.056Z,101529.00
2022-09-20T19:21:29.982Z,101533.00
2022-09-20T19:26:30.074Z,101539.00
2022-09-20T19:31:30.054Z,101545.00
2022-09-20T19:36:30.093Z,101555.00
2022-09-20T19:41:30.007Z,101561.00
2022-09-20T19:46:30.149Z,101563.00
2022-09-20T19:51:31.442Z,101577.00
2022-09-20T19:56:31.614Z,101577.00
2022-09-20T20:01:32.378Z,101579.00
2022-09-20T20:06:32.099Z,101583.00
2022-09-20T20:11:31.998Z,101587.00
2022-09-20T20:16:33.135Z,101593.00
2022-09-20T20:21:34.913Z,101597.00
2022-09-20T20:26:35.585Z,101601.00
2022-09-20T20:31:35.323Z,101605.00
2022-09-20T20:36:35.110Z,101609.00
2022-09-20T20:41:35.098Z,101618.00
2022-09-20T20:46:35.793Z,101620.00
2022-09-20T20:51:36.682Z,101626.00
2022-09-20T20:56:37.033Z,101632.00
2022-09-20T21:01:37.180Z,101636.00
2022-09-20T21:06:37.127Z,101638.00
2022-09-20T21:11:37.057Z,101642.00
2022-09-20T21:16:37.073Z,101648.00
2022-09-20T21:21:38.010Z,101648.00
2022-09-20T21:26:38.058Z,101654.00
2022-09-20T21:31:38.164Z,101654.00
2022-09-20T21:36:38.217Z,101655.00
2022-09-20T21:41:38.152Z,101652.00
2022-09-20T21:46:39.644Z,101654.00
2022-09-20T21:51:39.116Z,101661.00
2022-09-20T21:56:39.822Z,101661.00
2022-09-20T22:01:40.635Z,101665.00
2022-09-20T22:06:40.258Z,101667.00
2022-09-20T22:11:40.423Z,101667.00
2022-09-20T22:16:40.206Z,101665.00
2022-09-20T22:21:40.078Z,101667.00
2022-09-20T22:26:40.141Z,101665.00
2022-09-20T22:31:42.334Z,101665.00
2022-09-20T22:36:42.101Z,101665.00
2022-09-20T22:41:42.272Z,101665.00
2022-09-20T22:46:42.329Z,101667.00
2022-09-20T22:51:42.133Z,101671.00
2022-09-20T22:56:42.123Z,101669.00
2022-09-20T23:01:42.415Z,101669.00
2022-09-20T23:06:42.135Z,101673.00
2022-09-20T23:11:42.294Z,101679.00
2022-09-20T23:16:42.232Z,101679.00
2022-09-20T23:21:42.148Z,101679.00
2022-09-20T23:26:42.120Z,101679.00
2022-09-20T23:31:45.565Z,101679.00
2022-09-20T23:36:45.172Z,101681.00
2022-09-20T23:41:50.560Z,101683.00
2022-09-20T23:46:47.177Z,101683.00
2022-09-20T23:51:47.161Z,101677.00
2022-09-20T23:56:48.179Z,101677.00
